Adaven, Nevada
Current Conditions -  °F | °C
As of 12:56 AM on Saturday 29 Nov 2014 (Local Time) from KTPH Reporting Station
Clear Clear  
Wind Chill: 19°   Ceiling: Unl
Heat Index: 28°   Visibility: 10mi
Dew Point:   Wind: 10mph
Humidity: 43%   Direction: 10°N
Pressure: 29.9"   Gusts: NA
Location:  38.13°N, 115.6°W
Report Text: KTPH 290856Z AUTO 01009KT 10SM CLR M02/M13 A2990 RMK AO2 SLP108 T10221133 58011
Loading
Personal Weather Stations






























Interactive Weather Map New forecast layout! Learn more

10-Day Weather Forecast

Advertisements
Track Severe Weather on mobile